METAR AND TAF INFORMATION
METAR FOR GCXO
ADDS - METARS form results

(1712 UTC 22 October 2017)
Data provider http://aviationweather.gov/adds/metars/
 
METAR text: GCXO 221700Z 04004KT 340V080 9999 FEW012 SCT019 BKN035 20/16 Q1022 NOSIG
Conditions at: GCXO (TENERIFE/LOS ROD, ES) observed 1700 UTC 22 October 2017
Temperature: 20.0°C (68°F)
Dewpoint: 16.0°C (61°F) [RH = 78%]
Pressure (altimeter): 30.18 inches Hg (1022.0 mb)
Winds: from the NE (40 degrees) at 5 MPH (4 knots; 2.1 m/s)
Visibility: 6 or more miles (10+ km)
Ceiling: 3500 feet AGL
Clouds: few clouds at 1200 feet AGL
scattered clouds at 1900 feet AGL
broken clouds at 3500 feet AGL
Weather: no significant weather observed at this time

METAR text: GCXO 221630Z 08007KT 050V120 9999 FEW012 SCT022 BKN032 20/15 Q1022 NOSIG
Conditions at: GCXO (TENERIFE/LOS ROD, ES) observed 1630 UTC 22 October 2017
Temperature: 20.0°C (68°F)
Dewpoint: 15.0°C (59°F) [RH = 73%]
Pressure (altimeter): 30.18 inches Hg (1022.0 mb)
Winds: from the E (80 degrees) at 8 MPH (7 knots; 3.6 m/s)
Visibility: 6 or more miles (10+ km)
Ceiling: 3200 feet AGL
Clouds: few clouds at 1200 feet AGL
scattered clouds at 2200 feet AGL
broken clouds at 3200 feet AGL
Weather: no significant weather observed at this time

Forecast for: GCXO (TENERIFE/LOS ROD, ES)
Text: TAF AMD GCXO 221635Z 2216/2315 12010KT 9999 FEW010 BKN020 TX21/2313Z TN16/2306Z
Forecast period: 1600 UTC 22 October 2017 to 1500 UTC 23 October 2017
Forecast type: FROM: standard forecast or significant change
Winds: from the ESE (120 degrees) at 12 MPH (10 knots; 5.2 m/s)
Visibility: 6 or more miles (10+ km)
Ceiling: 2000 feet AGL
Clouds: few clouds at 1000 feet AGL
broken clouds at 2000 feet AGL
Weather: no significant weather forecast for this period
Text: PROB40
Forecast period: 1600 UTC 22 October 2017 to 1200 UTC 23 October 2017
Forecast type: TEMPORARY: The following changes expected for less than half the time period
Visibility: 1.55 miles (2.49 km)
Ceiling: 500 feet AGL
Clouds: broken clouds at 500 feet AGL
Weather: DZ RA  (drizzle, rain)

 AIRPORT MAP

 RUNWAY INFORMATION
Runway 12 Runway length 11155 ft Runway width 148 ft
Runway elevation 2060 ft Runway displaced threshold 0 ft Runway heading 111
Runway 30 Runway length 11155 ft Runway width 148 ft
Runway elevation 2002 ft Runway displaced threshold 0 ft Runway heading 291

 AIRPORT FREQUENCIES
Type APP Name APP Frequency 119.7 MHZ
Type ATIS Name ATIS Frequency 118.575 MHZ
Type GND Name GND Frequency 121.7 MHZ
Type TWR Name TWR Frequency 118.7 MHZ

 AIRPORT NEAR NAVIGATION AIDS
Type VOR-DME Name Tenerife Norte Frequency 117700 KHZ
Type NDB Name Tenerife Norte Frequency 410 KHZ







Air Nostrum Virtual © 2017

a VAG member

Policy Privacy | Rules | Powered by VAM [V2.6.2] | Customized by Jz © 2017 for Air Nostrum Virtual